sensor_id;sensor_type;location;lat;lon;timestamp;P1;durP1;ratioP1;P2;durP2;ratioP2
52642;SDS011;38531;53.296;6.614;2022-12-18T00:06:52;34.33;;;11.82;;
52642;SDS011;38531;53.296;6.614;2022-12-18T00:09:59;41.72;;;11.10;;
52642;SDS011;38531;53.296;6.614;2022-12-18T00:13:26;35.08;;;10.98;;
52642;SDS011;38531;53.296;6.614;2022-12-18T00:16:30;34.35;;;12.95;;
52642;SDS011;38531;53.296;6.614;2022-12-18T00:23:19;42.78;;;13.95;;
52642;SDS011;38531;53.296;6.614;2022-12-18T00:30:22;41.73;;;13.03;;
52642;SDS011;38531;53.296;6.614;2022-12-18T00:40:30;35.80;;;13.32;;
52642;SDS011;38531;53.296;6.614;2022-12-18T00:43:44;38.00;;;12.55;;
52642;SDS011;38531;53.296;6.614;2022-12-18T00:50:23;38.47;;;11.98;;
52642;SDS011;38531;53.296;6.614;2022-12-18T00:59:48;26.88;;;10.13;;
52642;SDS011;38531;53.296;6.614;2022-12-18T01:03:03;33.80;;;9.93;;
52642;SDS011;38531;53.296;6.614;2022-12-18T01:09:52;43.58;;;13.05;;
52642;SDS011;38531;53.296;6.614;2022-12-18T01:15:50;32.13;;;10.05;;
52642;SDS011;38531;53.296;6.614;2022-12-18T01:21:44;35.67;;;10.70;;
52642;SDS011;38531;53.296;6.614;2022-12-18T01:25:00;29.70;;;10.23;;
52642;SDS011;38531;53.296;6.614;2022-12-18T01:28:28;30.30;;;10.57;;
52642;SDS011;38531;53.296;6.614;2022-12-18T01:31:59;34.95;;;10.70;;
52642;SDS011;38531;53.296;6.614;2022-12-18T01:34:59;33.78;;;10.18;;
52642;SDS011;38531;53.296;6.614;2022-12-18T01:38:28;32.58;;;9.48;;
52642;SDS011;38531;53.296;6.614;2022-12-18T01:45:42;31.73;;;10.57;;
52642;SDS011;38531;53.296;6.614;2022-12-18T01:48:48;29.75;;;9.70;;
52642;SDS011;38531;53.296;6.614;2022-12-18T01:55:07;29.48;;;10.93;;
52642;SDS011;38531;53.296;6.614;2022-12-18T01:58:09;28.23;;;9.88;;
52642;SDS011;38531;53.296;6.614;2022-12-18T02:01:34;24.88;;;8.80;;
52642;SDS011;38531;53.296;6.614;2022-12-18T02:15:10;29.27;;;9.65;;
52642;SDS011;38531;53.296;6.614;2022-12-18T02:18:40;34.50;;;11.23;;
52642;SDS011;38531;53.296;6.614;2022-12-18T02:28:14;31.27;;;10.18;;
52642;SDS011;38531;53.296;6.614;2022-12-18T02:31:36;31.50;;;9.40;;
52642;SDS011;38531;53.296;6.614;2022-12-18T02:34:44;28.65;;;11.23;;
52642;SDS011;38531;53.296;6.614;2022-12-18T02:38:10;33.88;;;11.20;;
52642;SDS011;38531;53.296;6.614;2022-12-18T02:41:38;26.48;;;9.55;;
52642;SDS011;38531;53.296;6.614;2022-12-18T02:44:47;34.17;;;9.65;;
52642;SDS011;38531;53.296;6.614;2022-12-18T02:47:56;27.98;;;8.85;;
52642;SDS011;38531;53.296;6.614;2022-12-18T02:51:09;21.50;;;8.53;;
52642;SDS011;38531;53.296;6.614;2022-12-18T02:54:48;28.40;;;10.05;;
52642;SDS011;38531;53.296;6.614;2022-12-18T03:05:24;24.50;;;9.90;;
52642;SDS011;38531;53.296;6.614;2022-12-18T03:15:29;22.50;;;8.60;;
52642;SDS011;38531;53.296;6.614;2022-12-18T03:18:30;31.05;;;10.32;;
52642;SDS011;38531;53.296;6.614;2022-12-18T03:22:02;33.30;;;9.88;;
52642;SDS011;38531;53.296;6.614;2022-12-18T03:25:18;32.40;;;9.32;;
52642;SDS011;38531;53.296;6.614;2022-12-18T03:32:11;28.45;;;8.65;;
52642;SDS011;38531;53.296;6.614;2022-12-18T03:41:33;24.15;;;8.15;;
52642;SDS011;38531;53.296;6.614;2022-12-18T03:44:31;36.03;;;9.45;;
52642;SDS011;38531;53.296;6.614;2022-12-18T03:55:02;30.08;;;9.52;;
52642;SDS011;38531;53.296;6.614;2022-12-18T04:01:58;31.65;;;9.23;;
52642;SDS011;38531;53.296;6.614;2022-12-18T04:05:18;25.98;;;8.13;;
52642;SDS011;38531;53.296;6.614;2022-12-18T04:25:34;34.17;;;10.88;;
52642;SDS011;38531;53.296;6.614;2022-12-18T04:28:53;34.42;;;10.27;;
52642;SDS011;38531;53.296;6.614;2022-12-18T04:36:02;26.85;;;11.02;;
52642;SDS011;38531;53.296;6.614;2022-12-18T04:49:54;46.70;;;13.55;;
52642;SDS011;38531;53.296;6.614;2022-12-18T04:53:24;29.58;;;9.52;;
52642;SDS011;38531;53.296;6.614;2022-12-18T04:56:58;33.90;;;10.18;;
52642;SDS011;38531;53.296;6.614;2022-12-18T05:00:28;27.42;;;9.60;;
52642;SDS011;38531;53.296;6.614;2022-12-18T05:03:05;28.98;;;9.68;;
52642;SDS011;38531;53.296;6.614;2022-12-18T05:09:14;33.88;;;11.15;;
52642;SDS011;38531;53.296;6.614;2022-12-18T05:12:44;27.10;;;9.70;;
52642;SDS011;38531;53.296;6.614;2022-12-18T05:15:51;33.30;;;10.05;;
52642;SDS011;38531;53.296;6.614;2022-12-18T05:25:17;29.90;;;8.82;;
52642;SDS011;38531;53.296;6.614;2022-12-18T05:35:24;30.10;;;9.85;;
52642;SDS011;38531;53.296;6.614;2022-12-18T05:41:58;29.00;;;9.70;;
52642;SDS011;38531;53.296;6.614;2022-12-18T05:51:43;31.33;;;11.48;;
52642;SDS011;38531;53.296;6.614;2022-12-18T05:58:08;28.08;;;9.95;;
52642;SDS011;38531;53.296;6.614;2022-12-18T06:07:56;26.80;;;9.02;;
52642;SDS011;38531;53.296;6.614;2022-12-18T06:11:15;20.30;;;7.88;;
52642;SDS011;38531;53.296;6.614;2022-12-18T06:14:09;24.90;;;8.48;;
52642;SDS011;38531;53.296;6.614;2022-12-18T06:23:13;32.78;;;9.13;;
52642;SDS011;38531;53.296;6.614;2022-12-18T06:36:24;27.98;;;9.27;;
52642;SDS011;38531;53.296;6.614;2022-12-18T06:39:46;27.30;;;10.15;;
52642;SDS011;38531;53.296;6.614;2022-12-18T06:43:09;25.83;;;8.57;;
52642;SDS011;38531;53.296;6.614;2022-12-18T06:45:50;25.95;;;9.30;;
52642;SDS011;38531;53.296;6.614;2022-12-18T06:49:08;23.55;;;8.77;;
52642;SDS011;38531;53.296;6.614;2022-12-18T06:52:26;23.30;;;8.70;;
52642;SDS011;38531;53.296;6.614;2022-12-18T06:55:16;19.65;;;7.60;;
52642;SDS011;38531;53.296;6.614;2022-12-18T07:08:22;22.20;;;6.45;;
52642;SDS011;38531;53.296;6.614;2022-12-18T07:14:46;19.95;;;7.10;;
52642;SDS011;38531;53.296;6.614;2022-12-18T07:17:34;16.88;;;5.55;;
52642;SDS011;38531;53.296;6.614;2022-12-18T07:20:58;17.63;;;7.22;;
52642;SDS011;38531;53.296;6.614;2022-12-18T07:23:58;16.40;;;5.90;;
52642;SDS011;38531;53.296;6.614;2022-12-18T07:27:03;16.10;;;5.82;;
52642;SDS011;38531;53.296;6.614;2022-12-18T07:29:52;15.48;;;5.57;;
52642;SDS011;38531;53.296;6.614;2022-12-18T07:32:52;14.13;;;4.82;;
52642;SDS011;38531;53.296;6.614;2022-12-18T07:35:36;18.52;;;5.80;;
52642;SDS011;38531;53.296;6.614;2022-12-18T07:38:33;18.38;;;6.13;;
52642;SDS011;38531;53.296;6.614;2022-12-18T07:41:32;13.40;;;5.05;;
52642;SDS011;38531;53.296;6.614;2022-12-18T07:44:35;13.98;;;5.05;;
52642;SDS011;38531;53.296;6.614;2022-12-18T07:47:44;15.25;;;6.53;;
52642;SDS011;38531;53.296;6.614;2022-12-18T07:50:42;19.95;;;5.75;;
52642;SDS011;38531;53.296;6.614;2022-12-18T07:53:42;9.93;;;4.90;;
52642;SDS011;38531;53.296;6.614;2022-12-18T07:56:43;15.05;;;5.50;;
52642;SDS011;38531;53.296;6.614;2022-12-18T07:59:43;12.90;;;5.20;;
52642;SDS011;38531;53.296;6.614;2022-12-18T08:02:13;15.43;;;5.93;;
52642;SDS011;38531;53.296;6.614;2022-12-18T08:05:13;13.77;;;5.70;;
52642;SDS011;38531;53.296;6.614;2022-12-18T08:08:14;19.27;;;5.88;;
52642;SDS011;38531;53.296;6.614;2022-12-18T08:11:14;18.95;;;6.55;;
52642;SDS011;38531;53.296;6.614;2022-12-18T08:14:31;16.08;;;5.90;;
52642;SDS011;38531;53.296;6.614;2022-12-18T08:17:07;21.05;;;6.53;;
52642;SDS011;38531;53.296;6.614;2022-12-18T08:19:39;20.52;;;7.05;;
52642;SDS011;38531;53.296;6.614;2022-12-18T08:22:36;23.02;;;7.22;;
52642;SDS011;38531;53.296;6.614;2022-12-18T08:25:40;16.40;;;6.40;;
52642;SDS011;38531;53.296;6.614;2022-12-18T08:28:46;20.30;;;7.63;;
52642;SDS011;38531;53.296;6.614;2022-12-18T08:31:47;20.13;;;7.18;;
52642;SDS011;38531;53.296;6.614;2022-12-18T08:34:46;16.13;;;6.85;;
52642;SDS011;38531;53.296;6.614;2022-12-18T08:37:40;16.80;;;6.10;;
52642;SDS011;38531;53.296;6.614;2022-12-18T08:40:29;17.38;;;6.78;;
52642;SDS011;38531;53.296;6.614;2022-12-18T08:43:32;20.67;;;5.40;;
52642;SDS011;38531;53.296;6.614;2022-12-18T08:46:46;18.15;;;6.85;;
52642;SDS011;38531;53.296;6.614;2022-12-18T08:49:36;18.10;;;6.47;;
52642;SDS011;38531;53.296;6.614;2022-12-18T08:52:21;18.05;;;6.78;;
52642;SDS011;38531;53.296;6.614;2022-12-18T08:55:19;13.85;;;5.38;;
52642;SDS011;38531;53.296;6.614;2022-12-18T08:58:22;17.65;;;6.18;;
52642;SDS011;38531;53.296;6.614;2022-12-18T09:04:19;14.77;;;5.30;;
52642;SDS011;38531;53.296;6.614;2022-12-18T09:07:17;16.10;;;6.07;;
52642;SDS011;38531;53.296;6.614;2022-12-18T09:10:12;10.85;;;4.97;;
52642;SDS011;38531;53.296;6.614;2022-12-18T09:16:21;13.85;;;4.82;;
52642;SDS011;38531;53.296;6.614;2022-12-18T09:22:27;13.88;;;5.30;;
52642;SDS011;38531;53.296;6.614;2022-12-18T09:31:22;13.18;;;5.43;;
52642;SDS011;38531;53.296;6.614;2022-12-18T09:34:20;15.13;;;5.80;;
52642;SDS011;38531;53.296;6.614;2022-12-18T09:37:18;15.63;;;7.07;;
52642;SDS011;38531;53.296;6.614;2022-12-18T09:40:24;13.25;;;5.20;;
52642;SDS011;38531;53.296;6.614;2022-12-18T09:43:29;13.70;;;5.63;;
52642;SDS011;38531;53.296;6.614;2022-12-18T09:46:47;9.98;;;4.75;;
52642;SDS011;38531;53.296;6.614;2022-12-18T09:49:54;11.65;;;4.38;;
52642;SDS011;38531;53.296;6.614;2022-12-18T09:55:54;13.45;;;4.97;;
52642;SDS011;38531;53.296;6.614;2022-12-18T09:58:54;11.60;;;5.18;;
52642;SDS011;38531;53.296;6.614;2022-12-18T10:01:55;11.00;;;4.78;;
52642;SDS011;38531;53.296;6.614;2022-12-18T10:11:12;14.52;;;5.32;;
52642;SDS011;38531;53.296;6.614;2022-12-18T10:14:09;13.07;;;4.53;;
52642;SDS011;38531;53.296;6.614;2022-12-18T10:20:33;8.45;;;2.92;;
52642;SDS011;38531;53.296;6.614;2022-12-18T10:26:37;8.27;;;3.95;;
52642;SDS011;38531;53.296;6.614;2022-12-18T10:32:58;12.35;;;4.28;;
52642;SDS011;38531;53.296;6.614;2022-12-18T10:42:20;11.23;;;4.88;;
52642;SDS011;38531;53.296;6.614;2022-12-18T10:45:17;11.32;;;5.57;;
52642;SDS011;38531;53.296;6.614;2022-12-18T10:48:21;9.85;;;5.07;;
52642;SDS011;38531;53.296;6.614;2022-12-18T10:51:31;8.80;;;4.35;;
52642;SDS011;38531;53.296;6.614;2022-12-18T10:54:36;12.02;;;3.72;;
52642;SDS011;38531;53.296;6.614;2022-12-18T10:58:13;6.28;;;2.83;;
52642;SDS011;38531;53.296;6.614;2022-12-18T11:04:40;8.38;;;3.47;;
52642;SDS011;38531;53.296;6.614;2022-12-18T11:08:07;8.15;;;4.03;;
52642;SDS011;38531;53.296;6.614;2022-12-18T11:11:32;7.00;;;4.20;;
52642;SDS011;38531;53.296;6.614;2022-12-18T11:17:50;12.32;;;5.90;;
52642;SDS011;38531;53.296;6.614;2022-12-18T11:20:58;9.98;;;3.88;;
52642;SDS011;38531;53.296;6.614;2022-12-18T11:24:17;7.72;;;3.40;;
52642;SDS011;38531;53.296;6.614;2022-12-18T11:27:35;9.10;;;4.72;;
52642;SDS011;38531;53.296;6.614;2022-12-18T11:30:39;6.55;;;4.13;;
52642;SDS011;38531;53.296;6.614;2022-12-18T11:37:02;9.45;;;4.55;;
52642;SDS011;38531;53.296;6.614;2022-12-18T11:40:15;9.85;;;3.92;;
52642;SDS011;38531;53.296;6.614;2022-12-18T11:43:26;8.02;;;3.85;;
52642;SDS011;38531;53.296;6.614;2022-12-18T11:46:49;6.50;;;3.83;;
52642;SDS011;38531;53.296;6.614;2022-12-18T11:53:25;8.02;;;3.35;;
52642;SDS011;38531;53.296;6.614;2022-12-18T11:59:32;8.57;;;3.30;;
52642;SDS011;38531;53.296;6.614;2022-12-18T12:05:39;5.82;;;2.65;;
52642;SDS011;38531;53.296;6.614;2022-12-18T12:12:51;5.45;;;2.75;;
52642;SDS011;38531;53.296;6.614;2022-12-18T12:16:06;8.48;;;2.85;;
52642;SDS011;38531;53.296;6.614;2022-12-18T12:21:45;8.07;;;3.38;;
52642;SDS011;38531;53.296;6.614;2022-12-18T12:31:20;5.88;;;2.67;;
52642;SDS011;38531;53.296;6.614;2022-12-18T12:40:57;7.65;;;2.50;;
52642;SDS011;38531;53.296;6.614;2022-12-18T12:44:13;6.88;;;2.25;;
52642;SDS011;38531;53.296;6.614;2022-12-18T12:50:13;5.68;;;2.53;;
52642;SDS011;38531;53.296;6.614;2022-12-18T12:52:46;7.18;;;3.20;;
52642;SDS011;38531;53.296;6.614;2022-12-18T12:55:46;5.88;;;2.97;;
52642;SDS011;38531;53.296;6.614;2022-12-18T12:59:06;7.15;;;3.05;;
52642;SDS011;38531;53.296;6.614;2022-12-18T13:05:31;6.43;;;2.83;;
52642;SDS011;38531;53.296;6.614;2022-12-18T13:08:34;7.45;;;2.83;;
52642;SDS011;38531;53.296;6.614;2022-12-18T13:11:34;5.13;;;2.28;;
52642;SDS011;38531;53.296;6.614;2022-12-18T13:17:26;6.38;;;2.20;;
52642;SDS011;38531;53.296;6.614;2022-12-18T13:20:16;6.05;;;2.40;;
52642;SDS011;38531;53.296;6.614;2022-12-18T13:26:32;4.03;;;2.08;;
52642;SDS011;38531;53.296;6.614;2022-12-18T13:32:32;3.88;;;1.83;;
52642;SDS011;38531;53.296;6.614;2022-12-18T13:38:10;4.47;;;2.08;;
52642;SDS011;38531;53.296;6.614;2022-12-18T13:41:32;3.00;;;1.58;;
52642;SDS011;38531;53.296;6.614;2022-12-18T13:47:00;6.18;;;2.10;;
52642;SDS011;38531;53.296;6.614;2022-12-18T13:52:02;3.42;;;1.73;;
52642;SDS011;38531;53.296;6.614;2022-12-18T13:54:58;4.32;;;1.70;;
52642;SDS011;38531;53.296;6.614;2022-12-18T13:57:34;3.83;;;1.90;;
52642;SDS011;38531;53.296;6.614;2022-12-18T14:02:55;4.63;;;2.17;;
52642;SDS011;38531;53.296;6.614;2022-12-18T14:11:48;5.45;;;2.10;;
52642;SDS011;38531;53.296;6.614;2022-12-18T14:14:53;10.63;;;2.15;;
52642;SDS011;38531;53.296;6.614;2022-12-18T14:17:49;5.60;;;1.75;;
52642;SDS011;38531;53.296;6.614;2022-12-18T14:20:50;3.95;;;1.80;;
52642;SDS011;38531;53.296;6.614;2022-12-18T14:27:24;4.82;;;1.73;;
52642;SDS011;38531;53.296;6.614;2022-12-18T14:30:23;4.28;;;2.60;;
52642;SDS011;38531;53.296;6.614;2022-12-18T14:36:28;10.15;;;3.17;;
52642;SDS011;38531;53.296;6.614;2022-12-18T14:38:58;6.45;;;3.58;;
52642;SDS011;38531;53.296;6.614;2022-12-18T14:41:29;6.43;;;3.13;;
52642;SDS011;38531;53.296;6.614;2022-12-18T14:44:05;10.60;;;3.38;;
52642;SDS011;38531;53.296;6.614;2022-12-18T14:46:44;6.57;;;2.72;;
52642;SDS011;38531;53.296;6.614;2022-12-18T14:51:55;6.55;;;2.42;;
52642;SDS011;38531;53.296;6.614;2022-12-18T14:54:29;7.18;;;2.67;;
52642;SDS011;38531;53.296;6.614;2022-12-18T14:59:51;8.93;;;3.63;;
52642;SDS011;38531;53.296;6.614;2022-12-18T15:02:46;8.38;;;3.28;;
52642;SDS011;38531;53.296;6.614;2022-12-18T15:05:17;8.85;;;3.80;;
52642;SDS011;38531;53.296;6.614;2022-12-18T15:07:51;8.90;;;3.60;;
52642;SDS011;38531;53.296;6.614;2022-12-18T15:10:21;6.68;;;3.25;;
52642;SDS011;38531;53.296;6.614;2022-12-18T15:20:49;9.88;;;4.47;;
52642;SDS011;38531;53.296;6.614;2022-12-18T15:26:19;7.78;;;3.88;;
52642;SDS011;38531;53.296;6.614;2022-12-18T15:28:50;11.60;;;4.57;;
52642;SDS011;38531;53.296;6.614;2022-12-18T15:34:08;12.43;;;4.43;;
52642;SDS011;38531;53.296;6.614;2022-12-18T15:37:02;6.30;;;3.17;;
52642;SDS011;38531;53.296;6.614;2022-12-18T15:39:58;7.88;;;4.32;;
52642;SDS011;38531;53.296;6.614;2022-12-18T15:46:06;6.95;;;4.15;;
52642;SDS011;38531;53.296;6.614;2022-12-18T15:49:08;9.27;;;4.47;;
52642;SDS011;38531;53.296;6.614;2022-12-18T15:59:04;8.70;;;4.38;;
52642;SDS011;38531;53.296;6.614;2022-12-18T16:23:38;9.25;;;4.22;;
52642;SDS011;38531;53.296;6.614;2022-12-18T16:26:06;9.57;;;3.75;;
52642;SDS011;38531;53.296;6.614;2022-12-18T16:28:43;8.43;;;3.58;;
52642;SDS011;38531;53.296;6.614;2022-12-18T16:31:10;6.22;;;3.03;;
52642;SDS011;38531;53.296;6.614;2022-12-18T16:33:36;9.20;;;3.53;;
52642;SDS011;38531;53.296;6.614;2022-12-18T16:36:04;7.20;;;3.70;;
52642;SDS011;38531;53.296;6.614;2022-12-18T16:38:31;7.35;;;3.30;;
52642;SDS011;38531;53.296;6.614;2022-12-18T16:40:58;7.10;;;3.33;;
52642;SDS011;38531;53.296;6.614;2022-12-18T16:43:42;6.63;;;3.08;;
52642;SDS011;38531;53.296;6.614;2022-12-18T16:46:09;5.03;;;2.80;;
52642;SDS011;38531;53.296;6.614;2022-12-18T16:48:36;6.78;;;2.70;;
52642;SDS011;38531;53.296;6.614;2022-12-18T16:51:03;7.25;;;3.15;;
52642;SDS011;38531;53.296;6.614;2022-12-18T16:53:32;9.40;;;2.75;;
52642;SDS011;38531;53.296;6.614;2022-12-18T16:55:59;7.28;;;2.97;;
52642;SDS011;38531;53.296;6.614;2022-12-18T16:58:25;7.50;;;3.08;;
52642;SDS011;38531;53.296;6.614;2022-12-18T17:00:54;3.58;;;2.20;;
52642;SDS011;38531;53.296;6.614;2022-12-18T17:03:21;8.32;;;3.35;;
52642;SDS011;38531;53.296;6.614;2022-12-18T17:05:48;6.00;;;2.88;;
52642;SDS011;38531;53.296;6.614;2022-12-18T17:08:14;9.30;;;3.50;;
52642;SDS011;38531;53.296;6.614;2022-12-18T17:10:41;5.05;;;2.80;;
52642;SDS011;38531;53.296;6.614;2022-12-18T17:13:07;5.60;;;2.83;;
52642;SDS011;38531;53.296;6.614;2022-12-18T17:15:34;7.03;;;3.35;;
52642;SDS011;38531;53.296;6.614;2022-12-18T17:18:01;7.78;;;3.10;;
52642;SDS011;38531;53.296;6.614;2022-12-18T17:20:29;5.78;;;2.95;;
52642;SDS011;38531;53.296;6.614;2022-12-18T17:22:55;5.18;;;2.40;;
52642;SDS011;38531;53.296;6.614;2022-12-18T17:25:24;5.47;;;3.03;;
52642;SDS011;38531;53.296;6.614;2022-12-18T17:27:52;8.00;;;3.35;;
52642;SDS011;38531;53.296;6.614;2022-12-18T17:30:22;8.50;;;3.85;;
52642;SDS011;38531;53.296;6.614;2022-12-18T17:32:49;6.53;;;3.10;;
52642;SDS011;38531;53.296;6.614;2022-12-18T17:35:18;8.25;;;3.90;;
52642;SDS011;38531;53.296;6.614;2022-12-18T17:37:44;7.05;;;3.00;;
52642;SDS011;38531;53.296;6.614;2022-12-18T17:40:14;7.13;;;3.05;;
52642;SDS011;38531;53.296;6.614;2022-12-18T17:42:41;6.53;;;3.10;;
52642;SDS011;38531;53.296;6.614;2022-12-18T17:45:12;5.47;;;2.97;;
52642;SDS011;38531;53.296;6.614;2022-12-18T17:47:38;6.82;;;2.95;;
52642;SDS011;38531;53.296;6.614;2022-12-18T17:50:07;7.05;;;3.45;;
52642;SDS011;38531;53.296;6.614;2022-12-18T17:52:34;6.70;;;2.70;;
52642;SDS011;38531;53.296;6.614;2022-12-18T17:55:01;4.13;;;2.13;;
52642;SDS011;38531;53.296;6.614;2022-12-18T17:57:27;5.22;;;2.20;;
52642;SDS011;38531;53.296;6.614;2022-12-18T17:59:58;4.93;;;2.40;;
52642;SDS011;38531;53.296;6.614;2022-12-18T18:02:31;6.40;;;2.95;;
52642;SDS011;38531;53.296;6.614;2022-12-18T18:05:01;6.18;;;2.92;;
52642;SDS011;38531;53.296;6.614;2022-12-18T18:07:33;5.97;;;2.00;;
52642;SDS011;38531;53.296;6.614;2022-12-18T18:10:18;6.15;;;2.55;;
52642;SDS011;38531;53.296;6.614;2022-12-18T18:13:00;6.15;;;2.30;;
52642;SDS011;38531;53.296;6.614;2022-12-18T18:15:55;4.22;;;2.60;;
52642;SDS011;38531;53.296;6.614;2022-12-18T18:18:34;3.63;;;1.50;;
52642;SDS011;38531;53.296;6.614;2022-12-18T18:21:07;4.80;;;2.22;;
52642;SDS011;38531;53.296;6.614;2022-12-18T18:23:46;5.60;;;2.38;;
52642;SDS011;38531;53.296;6.614;2022-12-18T18:26:23;6.18;;;2.22;;
52642;SDS011;38531;53.296;6.614;2022-12-18T18:28:59;4.03;;;2.27;;
52642;SDS011;38531;53.296;6.614;2022-12-18T18:31:35;7.20;;;2.78;;
52642;SDS011;38531;53.296;6.614;2022-12-18T18:34:12;5.93;;;2.70;;
52642;SDS011;38531;53.296;6.614;2022-12-18T18:37:14;5.10;;;2.60;;
52642;SDS011;38531;53.296;6.614;2022-12-18T18:39:52;5.18;;;2.63;;
52642;SDS011;38531;53.296;6.614;2022-12-18T18:42:23;4.50;;;1.88;;
52642;SDS011;38531;53.296;6.614;2022-12-18T18:45:12;4.65;;;2.45;;
52642;SDS011;38531;53.296;6.614;2022-12-18T18:48:25;4.68;;;2.45;;
52642;SDS011;38531;53.296;6.614;2022-12-18T18:51:03;5.25;;;2.42;;
52642;SDS011;38531;53.296;6.614;2022-12-18T18:54:29;7.43;;;3.13;;
52642;SDS011;38531;53.296;6.614;2022-12-18T18:57:46;9.23;;;2.97;;
52642;SDS011;38531;53.296;6.614;2022-12-18T19:04:38;4.07;;;1.85;;
52642;SDS011;38531;53.296;6.614;2022-12-18T19:07:31;5.57;;;2.50;;
52642;SDS011;38531;53.296;6.614;2022-12-18T19:10:07;5.47;;;2.13;;
52642;SDS011;38531;53.296;6.614;2022-12-18T19:13:15;6.85;;;2.70;;
52642;SDS011;38531;53.296;6.614;2022-12-18T19:16:08;8.15;;;3.25;;
52642;SDS011;38531;53.296;6.614;2022-12-18T19:19:36;6.25;;;3.15;;
52642;SDS011;38531;53.296;6.614;2022-12-18T19:26:24;9.45;;;3.03;;
52642;SDS011;38531;53.296;6.614;2022-12-18T19:29:14;7.32;;;3.13;;
52642;SDS011;38531;53.296;6.614;2022-12-18T19:32:09;8.82;;;3.35;;
52642;SDS011;38531;53.296;6.614;2022-12-18T19:35:10;6.60;;;3.05;;
52642;SDS011;38531;53.296;6.614;2022-12-18T19:37:41;8.05;;;2.92;;
52642;SDS011;38531;53.296;6.614;2022-12-18T19:40:18;5.82;;;2.42;;
52642;SDS011;38531;53.296;6.614;2022-12-18T19:43:06;6.65;;;2.67;;
52642;SDS011;38531;53.296;6.614;2022-12-18T19:46:28;4.45;;;2.25;;
52642;SDS011;38531;53.296;6.614;2022-12-18T19:52:26;7.63;;;2.97;;
52642;SDS011;38531;53.296;6.614;2022-12-18T19:54:53;6.93;;;2.53;;
52642;SDS011;38531;53.296;6.614;2022-12-18T19:57:21;5.72;;;2.85;;
52642;SDS011;38531;53.296;6.614;2022-12-18T19:59:51;4.90;;;2.45;;
52642;SDS011;38531;53.296;6.614;2022-12-18T20:02:18;7.68;;;2.45;;
52642;SDS011;38531;53.296;6.614;2022-12-18T20:04:46;4.53;;;2.38;;
52642;SDS011;38531;53.296;6.614;2022-12-18T20:07:16;5.65;;;2.45;;
52642;SDS011;38531;53.296;6.614;2022-12-18T20:09:46;8.68;;;3.42;;
52642;SDS011;38531;53.296;6.614;2022-12-18T20:12:17;6.50;;;2.92;;
52642;SDS011;38531;53.296;6.614;2022-12-18T20:14:44;8.10;;;3.40;;
52642;SDS011;38531;53.296;6.614;2022-12-18T20:17:23;7.15;;;2.80;;
52642;SDS011;38531;53.296;6.614;2022-12-18T20:19:50;6.18;;;3.28;;
52642;SDS011;38531;53.296;6.614;2022-12-18T20:22:23;8.52;;;2.97;;
52642;SDS011;38531;53.296;6.614;2022-12-18T20:24:52;7.18;;;3.83;;
52642;SDS011;38531;53.296;6.614;2022-12-18T20:27:22;7.63;;;3.65;;
52642;SDS011;38531;53.296;6.614;2022-12-18T20:29:52;5.35;;;2.83;;
52642;SDS011;38531;53.296;6.614;2022-12-18T20:32:25;7.07;;;3.50;;
52642;SDS011;38531;53.296;6.614;2022-12-18T20:34:53;7.10;;;3.42;;
52642;SDS011;38531;53.296;6.614;2022-12-18T20:37:20;6.65;;;3.17;;
52642;SDS011;38531;53.296;6.614;2022-12-18T20:39:51;6.93;;;3.25;;
52642;SDS011;38531;53.296;6.614;2022-12-18T20:42:22;7.22;;;2.75;;
52642;SDS011;38531;53.296;6.614;2022-12-18T20:44:48;7.65;;;3.20;;
52642;SDS011;38531;53.296;6.614;2022-12-18T20:47:16;6.70;;;2.80;;
52642;SDS011;38531;53.296;6.614;2022-12-18T20:49:44;6.30;;;2.45;;
52642;SDS011;38531;53.296;6.614;2022-12-18T20:52:10;6.35;;;2.63;;
52642;SDS011;38531;53.296;6.614;2022-12-18T20:54:37;8.57;;;2.85;;
52642;SDS011;38531;53.296;6.614;2022-12-18T20:57:03;6.10;;;2.80;;
52642;SDS011;38531;53.296;6.614;2022-12-18T20:59:29;5.97;;;2.95;;
52642;SDS011;38531;53.296;6.614;2022-12-18T21:01:56;5.43;;;2.83;;
52642;SDS011;38531;53.296;6.614;2022-12-18T21:04:22;11.68;;;4.57;;
52642;SDS011;38531;53.296;6.614;2022-12-18T21:06:50;9.48;;;4.53;;
52642;SDS011;38531;53.296;6.614;2022-12-18T21:09:18;9.20;;;4.35;;
52642;SDS011;38531;53.296;6.614;2022-12-18T21:11:46;8.75;;;3.80;;
52642;SDS011;38531;53.296;6.614;2022-12-18T21:14:32;8.75;;;3.97;;
52642;SDS011;38531;53.296;6.614;2022-12-18T21:17:02;6.65;;;3.95;;
52642;SDS011;38531;53.296;6.614;2022-12-18T21:19:28;9.48;;;4.57;;
52642;SDS011;38531;53.296;6.614;2022-12-18T21:21:55;7.43;;;4.55;;
52642;SDS011;38531;53.296;6.614;2022-12-18T21:24:22;10.82;;;4.28;;
52642;SDS011;38531;53.296;6.614;2022-12-18T21:26:49;8.40;;;4.07;;
52642;SDS011;38531;53.296;6.614;2022-12-18T21:29:21;9.93;;;5.15;;
52642;SDS011;38531;53.296;6.614;2022-12-18T21:31:48;10.27;;;5.18;;
52642;SDS011;38531;53.296;6.614;2022-12-18T21:34:20;11.93;;;5.45;;
52642;SDS011;38531;53.296;6.614;2022-12-18T21:36:49;9.40;;;3.92;;
52642;SDS011;38531;53.296;6.614;2022-12-18T21:39:17;10.00;;;4.85;;
52642;SDS011;38531;53.296;6.614;2022-12-18T21:41:43;10.65;;;5.43;;
52642;SDS011;38531;53.296;6.614;2022-12-18T21:44:29;13.90;;;5.88;;
52642;SDS011;38531;53.296;6.614;2022-12-18T21:46:56;17.63;;;5.40;;
52642;SDS011;38531;53.296;6.614;2022-12-18T21:59:37;10.55;;;4.78;;
52642;SDS011;38531;53.296;6.614;2022-12-18T22:02:11;11.25;;;5.07;;
52642;SDS011;38531;53.296;6.614;2022-12-18T22:04:40;11.45;;;5.22;;
52642;SDS011;38531;53.296;6.614;2022-12-18T22:07:08;13.52;;;6.15;;
52642;SDS011;38531;53.296;6.614;2022-12-18T22:09:36;12.27;;;5.45;;
52642;SDS011;38531;53.296;6.614;2022-12-18T22:12:02;12.50;;;5.65;;
52642;SDS011;38531;53.296;6.614;2022-12-18T22:14:30;14.38;;;5.82;;
52642;SDS011;38531;53.296;6.614;2022-12-18T22:16:59;11.50;;;5.68;;
52642;SDS011;38531;53.296;6.614;2022-12-18T22:19:27;15.20;;;5.30;;
52642;SDS011;38531;53.296;6.614;2022-12-18T22:21:53;13.80;;;6.15;;
52642;SDS011;38531;53.296;6.614;2022-12-18T22:24:23;16.70;;;6.47;;
52642;SDS011;38531;53.296;6.614;2022-12-18T22:27:00;15.43;;;6.22;;
52642;SDS011;38531;53.296;6.614;2022-12-18T22:29:26;10.88;;;5.90;;
52642;SDS011;38531;53.296;6.614;2022-12-18T22:32:12;16.08;;;6.63;;
52642;SDS011;38531;53.296;6.614;2022-12-18T22:34:42;16.48;;;7.38;;
52642;SDS011;38531;53.296;6.614;2022-12-18T22:37:13;16.63;;;7.00;;
52642;SDS011;38531;53.296;6.614;2022-12-18T22:39:39;12.45;;;5.80;;
52642;SDS011;38531;53.296;6.614;2022-12-18T22:42:07;13.15;;;6.13;;
52642;SDS011;38531;53.296;6.614;2022-12-18T22:44:35;14.85;;;7.13;;
52642;SDS011;38531;53.296;6.614;2022-12-18T22:47:02;16.52;;;7.28;;
52642;SDS011;38531;53.296;6.614;2022-12-18T22:49:30;19.50;;;8.13;;
52642;SDS011;38531;53.296;6.614;2022-12-18T22:51:58;20.75;;;8.23;;
52642;SDS011;38531;53.296;6.614;2022-12-18T22:54:24;17.35;;;8.23;;
52642;SDS011;38531;53.296;6.614;2022-12-18T22:56:50;19.88;;;7.95;;
52642;SDS011;38531;53.296;6.614;2022-12-18T22:59:20;18.58;;;8.07;;
52642;SDS011;38531;53.296;6.614;2022-12-18T23:02:21;18.65;;;8.45;;
52642;SDS011;38531;53.296;6.614;2022-12-18T23:05:25;18.85;;;9.15;;
52642;SDS011;38531;53.296;6.614;2022-12-18T23:08:46;18.08;;;8.00;;
52642;SDS011;38531;53.296;6.614;2022-12-18T23:18:22;20.48;;;8.45;;
52642;SDS011;38531;53.296;6.614;2022-12-18T23:21:34;21.27;;;9.35;;
52642;SDS011;38531;53.296;6.614;2022-12-18T23:24:20;25.80;;;9.80;;
52642;SDS011;38531;53.296;6.614;2022-12-18T23:27:20;18.35;;;8.68;;
52642;SDS011;38531;53.296;6.614;2022-12-18T23:33:23;24.63;;;9.50;;
52642;SDS011;38531;53.296;6.614;2022-12-18T23:36:30;19.80;;;9.48;;
52642;SDS011;38531;53.296;6.614;2022-12-18T23:39:46;19.02;;;8.65;;